createdAt,value
2022-12-24T00:02:14.236Z,19.57
2022-12-24T00:05:17.452Z,19.57
2022-12-24T00:08:20.449Z,19.56
2022-12-24T00:11:23.370Z,19.57
2022-12-24T00:14:26.556Z,19.57
2022-12-24T00:17:30.851Z,19.57
2022-12-24T00:20:33.727Z,19.57
2022-12-24T00:23:36.692Z,19.57
2022-12-24T00:26:39.514Z,19.57
2022-12-24T00:29:42.451Z,19.56
2022-12-24T00:32:46.620Z,19.56
2022-12-24T00:35:52.501Z,19.56
2022-12-24T00:38:55.295Z,19.56
2022-12-24T00:41:58.458Z,19.56
2022-12-24T00:45:01.314Z,19.56
2022-12-24T00:48:05.695Z,19.55
2022-12-24T00:51:08.545Z,19.55
2022-12-24T00:54:11.586Z,19.55
2022-12-24T00:57:14.384Z,19.54
2022-12-24T01:00:18.116Z,19.56
2022-12-24T01:03:22.496Z,19.56
2022-12-24T01:06:24.374Z,19.57
2022-12-24T01:09:27.222Z,19.56
2022-12-24T01:12:30.160Z,19.56
2022-12-24T01:15:33.040Z,19.56
2022-12-24T01:18:37.304Z,19.56
2022-12-24T01:21:40.124Z,19.56
2022-12-24T01:24:43.675Z,19.57
2022-12-24T01:27:46.570Z,19.56
2022-12-24T01:30:49.979Z,19.56
2022-12-24T01:33:54.222Z,19.56
2022-12-24T01:36:57.084Z,19.57
2022-12-24T01:40:13.815Z,19.57
2022-12-24T01:43:25.008Z,19.57
2022-12-24T01:46:32.847Z,19.57
2022-12-24T01:49:38.932Z,19.57
2022-12-24T01:52:42.171Z,19.57
2022-12-24T01:55:47.164Z,19.57
2022-12-24T01:58:56.172Z,19.58
2022-12-24T02:01:59.289Z,19.57
2022-12-24T02:05:09.097Z,19.57
2022-12-24T02:08:12.027Z,19.57
2022-12-24T02:11:17.223Z,19.57
2022-12-24T02:14:20.275Z,19.57
2022-12-24T02:17:28.946Z,19.57
2022-12-24T02:21:11.050Z,19.57
2022-12-24T02:24:54.240Z,19.57
2022-12-24T02:28:00.907Z,19.57
2022-12-24T02:31:07.182Z,19.56
2022-12-24T02:34:16.372Z,19.56
2022-12-24T02:37:22.727Z,19.56
2022-12-24T02:40:30.493Z,19.57
2022-12-24T02:43:36.915Z,19.57
2022-12-24T02:46:41.200Z,19.56
2022-12-24T02:49:45.891Z,19.56
2022-12-24T02:52:49.691Z,19.57
2022-12-24T02:56:02.847Z,19.57
2022-12-24T02:59:26.101Z,19.57
2022-12-24T03:02:46.752Z,19.57
2022-12-24T03:05:53.192Z,19.58
2022-12-24T03:09:02.218Z,19.57
2022-12-24T03:12:11.827Z,19.58
2022-12-24T03:15:19.063Z,19.58
2022-12-24T03:18:25.626Z,19.56
2022-12-24T03:21:33.523Z,19.58
2022-12-24T03:24:36.524Z,19.57
2022-12-24T03:27:40.503Z,19.58
2022-12-24T03:30:44.630Z,19.57
2022-12-24T03:33:49.185Z,19.58
2022-12-24T03:36:52.119Z,19.58
2022-12-24T03:39:55.170Z,19.57
2022-12-24T03:42:58.015Z,19.58
2022-12-24T03:46:05.585Z,19.59
2022-12-24T03:49:09.795Z,19.58
2022-12-24T03:52:12.683Z,19.60
2022-12-24T03:55:15.572Z,19.60
2022-12-24T03:58:18.382Z,19.59
2022-12-24T04:01:21.328Z,19.59
2022-12-24T04:04:25.825Z,19.61
2022-12-24T04:07:28.766Z,19.60
2022-12-24T04:10:31.598Z,19.61
2022-12-24T04:13:34.654Z,19.61
2022-12-24T04:16:37.760Z,19.62
2022-12-24T04:19:42.023Z,19.63
2022-12-24T04:22:44.890Z,19.61
2022-12-24T04:25:48.022Z,19.61
2022-12-24T04:28:50.899Z,19.62
2022-12-24T04:31:53.751Z,19.60
2022-12-24T04:34:58.057Z,19.61
2022-12-24T04:38:01.111Z,19.60
2022-12-24T04:41:05.927Z,19.60
2022-12-24T04:44:10.888Z,19.60
2022-12-24T04:47:13.940Z,19.60
2022-12-24T04:50:18.267Z,19.59
2022-12-24T04:53:21.156Z,19.59
2022-12-24T04:56:25.901Z,19.60
2022-12-24T04:59:29.407Z,19.59
2022-12-24T05:02:32.496Z,19.58
2022-12-24T05:05:36.843Z,19.58
2022-12-24T05:08:39.930Z,19.57
2022-12-24T05:11:42.744Z,19.56
2022-12-24T05:14:45.639Z,19.58
2022-12-24T05:17:48.538Z,19.56
2022-12-24T05:20:52.861Z,19.56
2022-12-24T05:24:13.086Z,19.56
2022-12-24T05:27:15.971Z,19.57
2022-12-24T05:30:19.008Z,19.56
2022-12-24T05:33:21.875Z,19.56
2022-12-24T05:36:26.075Z,19.57
2022-12-24T05:39:28.879Z,19.56
2022-12-24T05:42:31.703Z,19.56
2022-12-24T05:45:34.662Z,19.56
2022-12-24T05:48:37.500Z,19.56
2022-12-24T05:51:42.619Z,19.57
2022-12-24T05:54:45.502Z,19.56
2022-12-24T05:57:48.329Z,19.56
2022-12-24T06:00:54.453Z,19.56
2022-12-24T06:03:58.259Z,19.57
2022-12-24T06:07:02.592Z,19.57
2022-12-24T06:10:06.363Z,19.57
2022-12-24T06:13:09.243Z,19.58
2022-12-24T06:16:14.853Z,19.58
2022-12-24T06:19:17.735Z,19.57
2022-12-24T06:22:22.121Z,19.58
2022-12-24T06:25:24.955Z,19.58
2022-12-24T06:28:28.206Z,19.57
2022-12-24T06:31:31.068Z,19.56
2022-12-24T06:34:33.961Z,19.56
2022-12-24T06:37:38.179Z,19.56
2022-12-24T06:40:41.623Z,19.56
2022-12-24T06:43:46.380Z,19.56
2022-12-24T06:46:49.311Z,19.56
2022-12-24T06:49:52.202Z,19.57
2022-12-24T06:52:56.707Z,19.56
2022-12-24T06:56:03.032Z,19.57
2022-12-24T06:59:05.879Z,19.56
2022-12-24T07:02:10.220Z,19.56
2022-12-24T07:05:14.369Z,19.55
2022-12-24T07:08:18.566Z,19.55
2022-12-24T07:11:22.277Z,19.55
2022-12-24T07:14:25.272Z,19.54
2022-12-24T07:17:28.314Z,19.55
2022-12-24T07:20:31.179Z,19.55
2022-12-24T07:23:35.830Z,19.56
2022-12-24T07:26:38.672Z,19.55
2022-12-24T07:29:41.569Z,19.56
2022-12-24T07:32:44.565Z,19.55
2022-12-24T07:35:52.199Z,19.56
2022-12-24T07:38:59.874Z,19.56
2022-12-24T07:42:02.750Z,19.57
2022-12-24T07:45:06.480Z,19.56
2022-12-24T07:48:09.266Z,19.56
2022-12-24T07:51:12.133Z,19.56
2022-12-24T07:54:16.329Z,19.56
2022-12-24T07:57:19.383Z,19.56
2022-12-24T08:00:22.636Z,19.57
2022-12-24T08:03:26.011Z,19.58
2022-12-24T08:06:28.939Z,19.59
2022-12-24T08:09:34.106Z,19.57
2022-12-24T08:12:36.980Z,19.58
2022-12-24T08:15:39.891Z,19.57
2022-12-24T08:18:42.778Z,19.57
2022-12-24T08:21:45.653Z,19.57
2022-12-24T08:24:49.839Z,19.57
2022-12-24T08:27:53.094Z,19.57
2022-12-24T08:30:56.236Z,19.57
2022-12-24T08:33:59.084Z,19.57
2022-12-24T08:37:01.910Z,19.57
2022-12-24T08:40:07.618Z,19.58
2022-12-24T08:43:10.480Z,19.58
2022-12-24T08:46:13.435Z,19.59
2022-12-24T08:49:16.344Z,19.58
2022-12-24T08:52:19.186Z,19.58
2022-12-24T08:55:23.335Z,19.58
2022-12-24T08:58:26.245Z,19.58
2022-12-24T09:01:29.187Z,19.57
2022-12-24T09:04:32.152Z,19.57
2022-12-24T09:07:35.016Z,19.57
2022-12-24T09:10:39.343Z,19.57
2022-12-24T09:13:42.579Z,19.57
2022-12-24T09:16:45.432Z,19.58
2022-12-24T09:19:48.386Z,19.58
2022-12-24T09:22:51.267Z,19.57
2022-12-24T09:25:55.762Z,19.57
2022-12-24T09:29:00.721Z,19.57
2022-12-24T09:32:03.844Z,19.57
2022-12-24T09:35:07.203Z,19.57
2022-12-24T09:38:10.317Z,19.56
2022-12-24T09:41:16.349Z,19.55
2022-12-24T09:44:39.500Z,19.56
2022-12-24T09:47:47.959Z,19.56
2022-12-24T09:50:55.928Z,19.57
2022-12-24T09:54:04.406Z,19.57
2022-12-24T09:57:16.811Z,19.57
2022-12-24T10:00:23.526Z,19.58
2022-12-24T10:03:26.580Z,19.58
2022-12-24T10:06:37.031Z,19.59
2022-12-24T10:09:49.067Z,19.58
2022-12-24T10:13:05.828Z,19.57
2022-12-24T10:16:14.573Z,19.58
2022-12-24T10:19:22.303Z,19.58
2022-12-24T10:22:33.779Z,19.58
2022-12-24T10:25:44.872Z,19.58
2022-12-24T10:28:53.227Z,19.58
2022-12-24T10:32:02.011Z,19.59
2022-12-24T10:35:18.535Z,19.59
2022-12-24T10:38:21.382Z,19.59
2022-12-24T10:41:26.346Z,19.60
2022-12-24T10:44:33.862Z,19.60
2022-12-24T10:47:40.349Z,19.60
2022-12-24T10:50:53.065Z,19.60
2022-12-24T10:54:02.040Z,19.60
2022-12-24T10:57:05.032Z,19.59
2022-12-24T11:00:20.623Z,19.58
2022-12-24T11:03:29.666Z,19.58
2022-12-24T11:06:32.541Z,19.57
2022-12-24T11:09:41.148Z,19.58
2022-12-24T11:13:12.864Z,19.58
2022-12-24T11:16:22.067Z,19.59
2022-12-24T11:19:34.736Z,19.58
2022-12-24T11:22:37.659Z,19.58
2022-12-24T11:25:42.709Z,19.58
2022-12-24T11:28:45.568Z,19.58
2022-12-24T11:31:52.619Z,19.58
2022-12-24T11:34:55.503Z,19.57
2022-12-24T11:38:12.372Z,19.57
2022-12-24T11:41:15.501Z,19.57
2022-12-24T11:44:26.070Z,19.58
2022-12-24T11:47:39.326Z,19.58
2022-12-24T11:50:42.284Z,19.59
2022-12-24T11:53:49.909Z,19.59
2022-12-24T11:56:54.846Z,19.59
2022-12-24T11:59:57.878Z,19.59
2022-12-24T12:03:04.083Z,19.59
2022-12-24T12:06:20.240Z,19.60
2022-12-24T12:09:28.020Z,19.59
2022-12-24T12:12:34.035Z,19.59
2022-12-24T12:15:41.940Z,19.59
2022-12-24T12:18:52.933Z,19.58
2022-12-24T12:21:55.868Z,19.59
2022-12-24T12:25:01.801Z,19.59
2022-12-24T12:28:10.106Z,19.60
2022-12-24T12:31:19.369Z,19.60
2022-12-24T12:34:30.710Z,19.59
2022-12-24T12:37:39.359Z,19.60
2022-12-24T12:40:59.064Z,19.59
2022-12-24T12:44:25.868Z,19.60
2022-12-24T12:47:46.941Z,19.59
2022-12-24T12:50:58.193Z,19.59
2022-12-24T12:54:22.515Z,19.58
2022-12-24T12:57:29.803Z,19.58
2022-12-24T13:00:36.741Z,19.57
2022-12-24T13:04:18.358Z,19.59
2022-12-24T13:08:00.351Z,19.59
2022-12-24T13:11:33.743Z,19.59
2022-12-24T13:14:51.558Z,19.59
2022-12-24T13:18:21.736Z,19.59
2022-12-24T13:21:27.556Z,19.58
2022-12-24T13:24:33.296Z,19.58
2022-12-24T13:27:36.676Z,19.58
2022-12-24T13:30:41.560Z,19.58
2022-12-24T13:33:49.365Z,19.58
2022-12-24T13:37:21.614Z,19.57
2022-12-24T13:40:26.674Z,19.57
2022-12-24T13:44:05.747Z,19.58
2022-12-24T13:47:26.820Z,19.58
2022-12-24T13:50:38.059Z,19.58
2022-12-24T13:53:45.580Z,19.59
2022-12-24T13:56:50.455Z,19.58
2022-12-24T13:59:59.611Z,19.58
2022-12-24T14:03:08.109Z,19.58
2022-12-24T14:06:14.363Z,19.57
2022-12-24T14:09:20.645Z,19.58
2022-12-24T14:16:05.611Z,19.58
2022-12-24T14:19:15.513Z,19.58
2022-12-24T14:22:28.189Z,19.59
2022-12-24T14:25:31.086Z,19.59
2022-12-24T14:28:40.409Z,19.60
2022-12-24T14:31:53.537Z,19.60
2022-12-24T14:35:10.717Z,19.60
2022-12-24T14:38:18.599Z,19.59
2022-12-24T14:41:32.688Z,19.59
2022-12-24T14:44:46.425Z,19.59
2022-12-24T14:47:58.293Z,19.59
2022-12-24T14:51:13.103Z,19.59
2022-12-24T14:54:33.519Z,19.60
2022-12-24T14:57:36.339Z,19.59
2022-12-24T15:00:39.705Z,19.59
2022-12-24T15:03:44.091Z,19.61
2022-12-24T15:06:50.349Z,19.61
2022-12-24T15:09:54.376Z,19.60
2022-12-24T15:12:59.210Z,19.60
2022-12-24T15:16:04.173Z,19.60
2022-12-24T15:19:16.974Z,19.59
2022-12-24T15:22:24.829Z,19.59
2022-12-24T15:25:30.284Z,19.59
2022-12-24T15:28:37.786Z,19.59
2022-12-24T15:31:40.719Z,19.59
2022-12-24T15:34:46.594Z,19.58
2022-12-24T15:37:49.573Z,19.60
2022-12-24T15:40:52.596Z,19.59
2022-12-24T15:44:02.789Z,19.60
2022-12-24T15:47:09.800Z,19.59
2022-12-24T15:50:19.826Z,19.60
2022-12-24T15:53:27.116Z,19.59
2022-12-24T15:56:33.987Z,19.58
2022-12-24T15:59:37.265Z,19.58
2022-12-24T16:02:42.543Z,19.58
2022-12-24T16:05:47.246Z,19.58
2022-12-24T16:08:51.076Z,19.58
2022-12-24T16:11:56.741Z,19.58
2022-12-24T16:15:04.096Z,19.58
2022-12-24T16:18:07.157Z,19.59
2022-12-24T16:21:19.728Z,19.59
2022-12-24T16:24:24.971Z,19.59
2022-12-24T16:27:27.881Z,19.60
2022-12-24T16:30:30.787Z,19.59
2022-12-24T16:33:33.605Z,19.58
2022-12-24T16:36:37.836Z,19.59
2022-12-24T16:39:40.720Z,19.59
2022-12-24T16:43:01.252Z,19.59
2022-12-24T16:46:07.979Z,19.58
2022-12-24T16:49:16.856Z,19.59
2022-12-24T16:52:22.692Z,19.58
2022-12-24T16:55:25.511Z,19.59
2022-12-24T16:58:29.482Z,19.59
2022-12-24T17:01:32.457Z,19.59
2022-12-24T17:04:35.973Z,19.60
2022-12-24T17:07:43.578Z,19.60
2022-12-24T17:10:51.956Z,19.60
2022-12-24T17:13:54.843Z,19.59
2022-12-24T17:16:57.639Z,19.59
2022-12-24T17:20:00.469Z,19.59
2022-12-24T17:23:04.616Z,19.58
2022-12-24T17:26:13.046Z,19.59
2022-12-24T17:29:17.387Z,19.58
2022-12-24T17:32:20.282Z,19.60
2022-12-24T17:35:23.165Z,19.60
2022-12-24T17:38:27.399Z,19.60
2022-12-24T17:41:30.219Z,19.60
2022-12-24T17:44:33.115Z,19.60
2022-12-24T17:47:35.975Z,19.60
2022-12-24T17:50:40.632Z,19.60
2022-12-24T17:53:44.978Z,19.60
2022-12-24T17:56:47.813Z,19.60
2022-12-24T17:59:50.618Z,19.59
2022-12-24T18:02:53.651Z,19.59
2022-12-24T18:05:56.875Z,19.60
2022-12-24T18:09:01.079Z,19.58
2022-12-24T18:12:03.995Z,19.59
2022-12-24T18:15:08.060Z,19.60
2022-12-24T18:18:10.978Z,19.60
2022-12-24T18:21:14.089Z,19.60
2022-12-24T18:24:18.336Z,19.60
2022-12-24T18:27:21.159Z,19.60
2022-12-24T18:30:27.710Z,19.59
2022-12-24T18:33:32.022Z,19.60
2022-12-24T18:36:35.494Z,19.59
2022-12-24T18:39:39.815Z,19.59
2022-12-24T18:42:42.737Z,19.59
2022-12-24T18:45:46.944Z,19.58
2022-12-24T18:48:50.262Z,19.59
2022-12-24T18:51:53.103Z,19.59
2022-12-24T18:54:57.253Z,19.61
2022-12-24T18:58:00.136Z,19.61
2022-12-24T19:01:03.046Z,19.60
2022-12-24T19:04:06.171Z,19.60
2022-12-24T19:07:09.029Z,19.60
2022-12-24T19:10:13.586Z,19.60
2022-12-24T19:13:16.402Z,19.61
2022-12-24T19:16:19.744Z,19.60
2022-12-24T19:19:24.149Z,19.59
2022-12-24T19:22:27.645Z,19.60
2022-12-24T19:25:32.064Z,19.60
2022-12-24T19:28:35.000Z,19.60
2022-12-24T19:31:37.846Z,19.61
2022-12-24T19:34:40.684Z,19.61
2022-12-24T19:37:43.524Z,19.62
2022-12-24T19:40:47.677Z,19.61
2022-12-24T19:43:52.907Z,19.61
2022-12-24T19:46:55.790Z,19.61
2022-12-24T19:49:58.968Z,19.60
2022-12-24T19:53:01.939Z,19.61
2022-12-24T19:56:07.296Z,19.61
2022-12-24T19:59:11.327Z,19.60
2022-12-24T20:02:14.364Z,19.60
2022-12-24T20:05:17.395Z,19.59
2022-12-24T20:08:20.251Z,19.60
2022-12-24T20:11:24.505Z,19.60
2022-12-24T20:14:28.133Z,19.60
2022-12-24T20:17:31.038Z,19.60
2022-12-24T20:20:33.905Z,19.60
2022-12-24T20:23:38.654Z,19.60
2022-12-24T20:26:42.922Z,19.60
2022-12-24T20:29:45.985Z,19.58
2022-12-24T20:32:55.065Z,19.59
2022-12-24T20:36:02.341Z,19.60
2022-12-24T20:39:06.577Z,19.59
2022-12-24T20:42:10.799Z,19.59
2022-12-24T20:45:13.643Z,19.60
2022-12-24T20:48:17.229Z,19.59
2022-12-24T20:51:24.729Z,19.60
2022-12-24T20:54:27.998Z,19.61
2022-12-24T20:57:36.305Z,19.60
2022-12-24T21:00:39.883Z,19.59
2022-12-24T21:03:42.767Z,19.59
2022-12-24T21:06:46.058Z,19.59
2022-12-24T21:09:48.993Z,19.58
2022-12-24T21:12:57.074Z,19.58
2022-12-24T21:16:00.001Z,19.58
2022-12-24T21:19:03.349Z,19.59
2022-12-24T21:22:06.174Z,19.60
2022-12-24T21:25:10.180Z,19.61
2022-12-24T21:28:17.625Z,19.60
2022-12-24T21:31:20.559Z,19.61
2022-12-24T21:34:23.495Z,19.60
2022-12-24T21:37:26.370Z,19.60
2022-12-24T21:40:29.214Z,19.60
2022-12-24T21:43:35.254Z,19.61
2022-12-24T21:46:38.179Z,19.61
2022-12-24T21:49:58.410Z,19.60
2022-12-24T21:53:15.163Z,19.60
2022-12-24T21:56:18.067Z,19.60
2022-12-24T21:59:26.543Z,19.60
2022-12-24T22:02:30.456Z,19.62
2022-12-24T22:05:35.121Z,19.61
2022-12-24T22:08:55.636Z,19.62
2022-12-24T22:11:58.528Z,19.61
2022-12-24T22:15:05.257Z,19.61
2022-12-24T22:18:08.150Z,19.61
2022-12-24T22:21:11.063Z,19.60
2022-12-24T22:24:13.959Z,19.60
2022-12-24T22:27:16.800Z,19.59
2022-12-24T22:30:21.056Z,19.58
2022-12-24T22:33:23.999Z,19.59
2022-12-24T22:36:26.976Z,19.59
2022-12-24T22:39:30.175Z,19.59
2022-12-24T22:42:33.818Z,19.60
2022-12-24T22:45:40.198Z,19.60
2022-12-24T22:48:44.262Z,19.61
2022-12-24T22:51:47.098Z,19.61
2022-12-24T22:54:49.996Z,19.61
2022-12-24T22:57:52.847Z,19.60
2022-12-24T23:00:57.691Z,19.61
2022-12-24T23:04:00.654Z,19.61
2022-12-24T23:07:03.687Z,19.60
2022-12-24T23:10:07.861Z,19.60
2022-12-24T23:13:30.872Z,19.60
2022-12-24T23:16:35.389Z,19.61
2022-12-24T23:19:38.547Z,19.61
2022-12-24T23:22:41.378Z,19.63
2022-12-24T23:25:44.434Z,19.62
2022-12-24T23:28:48.266Z,19.62
2022-12-24T23:31:52.509Z,19.63
2022-12-24T23:34:55.364Z,19.62
2022-12-24T23:37:58.215Z,19.61
2022-12-24T23:41:02.967Z,19.61
2022-12-24T23:44:06.164Z,19.61
2022-12-24T23:47:10.379Z,19.61
2022-12-24T23:50:13.216Z,19.61
2022-12-24T23:53:17.751Z,19.61
2022-12-24T23:56:21.252Z,19.61
2022-12-24T23:59:24.071Z,19.61
